createdAt,value
2017-03-23T00:00:28.910Z,18.24
2017-03-23T00:01:09.624Z,18.21
2017-03-23T00:01:50.259Z,18.28
2017-03-23T00:02:30.925Z,18.25
2017-03-23T00:03:11.552Z,18.21
2017-03-23T00:03:52.180Z,18.13
2017-03-23T00:04:32.846Z,18.1
2017-03-23T00:05:13.503Z,18.17
2017-03-23T00:05:54.134Z,18.24
2017-03-23T00:06:34.881Z,18.21
2017-03-23T00:07:15.532Z,18.1
2017-03-23T00:07:56.223Z,18.17
2017-03-23T00:08:36.810Z,18.17
2017-03-23T00:09:17.447Z,18.17
2017-03-23T00:09:58.072Z,18.18
2017-03-23T00:10:38.771Z,18.1
2017-03-23T00:11:19.476Z,18.22
2017-03-23T00:12:00.215Z,18.07
2017-03-23T00:12:40.862Z,18.1
2017-03-23T00:13:21.512Z,18.19
2017-03-23T00:14:02.155Z,18.17
2017-03-23T00:14:42.807Z,18.09
2017-03-23T00:15:23.414Z,18.13
2017-03-23T00:16:04.046Z,18.09
2017-03-23T00:16:44.709Z,18.04
2017-03-23T00:17:25.443Z,18.15
2017-03-23T00:18:06.074Z,18.15
2017-03-23T00:18:46.712Z,18.1
2017-03-23T00:19:27.360Z,18.17
2017-03-23T00:20:08.032Z,18.17
2017-03-23T00:20:48.692Z,18.06
2017-03-23T00:21:29.285Z,18.17
2017-03-23T00:22:09.921Z,18.17
2017-03-23T00:22:50.560Z,18.03
2017-03-23T00:23:31.195Z,18.18
2017-03-23T00:24:11.897Z,18.07
2017-03-23T00:24:52.535Z,18.1
2017-03-23T00:25:33.250Z,18.07
2017-03-23T00:26:13.932Z,18.06
2017-03-23T00:26:54.562Z,18.1
2017-03-23T00:27:35.200Z,18.06
2017-03-23T00:28:15.834Z,18.04
2017-03-23T00:28:56.469Z,18.1
2017-03-23T00:29:37.107Z,18.12
2017-03-23T00:30:17.809Z,18.15
2017-03-23T00:30:58.438Z,18.15
2017-03-23T00:31:39.137Z,18.04
2017-03-23T00:32:19.791Z,18.09
2017-03-23T00:33:00.423Z,18.09
2017-03-23T00:33:41.127Z,18.1
2017-03-23T00:34:21.803Z,18.09
2017-03-23T00:35:02.477Z,18.13
2017-03-23T00:35:43.140Z,18.18
2017-03-23T00:36:23.898Z,18.06
2017-03-23T00:37:04.595Z,18.02
2017-03-23T00:37:45.216Z,18.13
2017-03-23T00:38:25.839Z,18.18
2017-03-23T00:39:06.486Z,18.15
2017-03-23T00:39:47.106Z,18.15
2017-03-23T00:40:27.733Z,18.03
2017-03-23T00:41:08.435Z,18.13
2017-03-23T00:41:49.068Z,18.13
2017-03-23T00:42:29.697Z,18.13
2017-03-23T00:43:10.364Z,18.1
2017-03-23T00:43:51.004Z,18.04
2017-03-23T00:44:31.630Z,18.13
2017-03-23T00:45:12.290Z,18.12
2017-03-23T00:45:52.926Z,18.18
2017-03-23T00:46:33.601Z,18.1
2017-03-23T00:47:14.234Z,18.07
2017-03-23T00:47:54.884Z,18.13
2017-03-23T00:48:35.511Z,18.12
2017-03-23T00:49:16.291Z,18.07
2017-03-23T00:49:56.913Z,18.09
2017-03-23T00:50:37.542Z,18.13
2017-03-23T00:51:18.208Z,18.04
2017-03-23T00:51:58.837Z,18.07
2017-03-23T00:52:39.470Z,18.1
2017-03-23T00:53:20.111Z,18.07
2017-03-23T00:54:00.766Z,18.04
2017-03-23T00:54:41.486Z,18.07
2017-03-23T00:55:22.125Z,18.07
2017-03-23T00:56:02.760Z,18.02
2017-03-23T00:56:43.472Z,18.12
2017-03-23T00:57:24.109Z,18.02
2017-03-23T00:58:04.736Z,17.88
2017-03-23T00:58:45.415Z,17.89
2017-03-23T00:59:26.053Z,17.89
2017-03-23T01:00:06.678Z,17.92
2017-03-23T01:00:47.350Z,17.88
2017-03-23T01:01:28.048Z,17.94
2017-03-23T01:02:08.675Z,17.91
2017-03-23T01:02:49.308Z,17.91
2017-03-23T01:03:29.939Z,18
2017-03-23T01:04:10.567Z,17.94
2017-03-23T01:04:51.225Z,17.89
2017-03-23T01:05:31.858Z,17.91
2017-03-23T01:06:12.487Z,17.99
2017-03-23T01:06:53.121Z,18
2017-03-23T01:07:33.803Z,17.94
2017-03-23T01:08:14.431Z,17.95
2017-03-23T01:08:55.158Z,17.92
2017-03-23T01:09:35.787Z,17.89
2017-03-23T01:10:16.475Z,17.95
2017-03-23T01:10:57.054Z,17.97
2017-03-23T01:11:37.726Z,17.94
2017-03-23T01:12:18.326Z,17.95
2017-03-23T01:12:59.002Z,17.99
2017-03-23T01:13:39.722Z,17.91
2017-03-23T01:14:20.366Z,17.97
2017-03-23T01:15:01.004Z,17.97
2017-03-23T01:15:41.713Z,17.97
2017-03-23T01:16:22.347Z,17.91
2017-03-23T01:17:02.990Z,17.95
2017-03-23T01:17:43.716Z,18.02
2017-03-23T01:18:24.344Z,17.97
2017-03-23T01:19:04.982Z,18
2017-03-23T01:19:45.605Z,17.94
2017-03-23T01:20:26.276Z,17.95
2017-03-23T01:21:06.910Z,17.94
2017-03-23T01:21:47.600Z,18.03
2017-03-23T01:22:28.250Z,18.02
2017-03-23T01:23:08.882Z,17.95
2017-03-23T01:23:49.516Z,18.04
2017-03-23T01:24:30.274Z,17.94
2017-03-23T01:25:10.920Z,17.92
2017-03-23T01:25:51.611Z,17.99
2017-03-23T01:26:32.190Z,18
2017-03-23T01:27:12.819Z,17.88
2017-03-23T01:27:53.456Z,17.88
2017-03-23T01:28:34.157Z,17.91
2017-03-23T01:29:14.784Z,17.99
2017-03-23T01:29:55.414Z,17.97
2017-03-23T01:30:36.042Z,18
2017-03-23T01:31:16.683Z,17.91
2017-03-23T01:31:57.312Z,17.92
2017-03-23T01:32:37.941Z,17.99
2017-03-23T01:33:18.576Z,18.02
2017-03-23T01:33:59.207Z,17.95
2017-03-23T01:34:39.875Z,17.99
2017-03-23T01:35:20.506Z,17.94
2017-03-23T01:36:01.212Z,17.94
2017-03-23T01:36:41.843Z,17.94
2017-03-23T01:37:22.473Z,17.94
2017-03-23T01:38:03.119Z,17.89
2017-03-23T01:38:43.790Z,17.94
2017-03-23T01:39:24.419Z,17.89
2017-03-23T01:40:05.069Z,17.95
2017-03-23T01:40:45.798Z,17.94
2017-03-23T01:41:26.429Z,17.89
2017-03-23T01:42:07.096Z,17.92
2017-03-23T01:42:47.739Z,17.95
2017-03-23T01:43:28.382Z,17.99
2017-03-23T01:44:09.020Z,17.89
2017-03-23T01:44:49.686Z,17.92
2017-03-23T01:45:30.312Z,17.91
2017-03-23T01:46:11.073Z,17.92
2017-03-23T01:46:51.714Z,17.92
2017-03-23T01:47:32.411Z,17.91
2017-03-23T01:48:12.977Z,17.95
2017-03-23T01:48:53.700Z,17.94
2017-03-23T01:49:34.371Z,17.87
2017-03-23T01:50:15.007Z,17.89
2017-03-23T01:50:55.631Z,17.89
2017-03-23T01:51:36.297Z,17.89
2017-03-23T01:52:16.946Z,17.91
2017-03-23T01:52:57.574Z,17.94
2017-03-23T01:53:38.230Z,17.91
2017-03-23T01:54:18.861Z,17.91
2017-03-23T01:54:59.512Z,17.88
2017-03-23T01:55:40.192Z,17.88
2017-03-23T01:56:20.769Z,17.91
2017-03-23T01:57:01.401Z,17.91
2017-03-23T01:57:42.044Z,17.89
2017-03-23T01:58:22.689Z,17.95
2017-03-23T01:59:03.324Z,17.91
2017-03-23T01:59:43.957Z,17.89
2017-03-23T02:00:24.670Z,17.89
2017-03-23T02:01:05.300Z,17.92
2017-03-23T02:01:45.927Z,17.91
2017-03-23T02:02:26.571Z,17.88
2017-03-23T02:03:07.327Z,17.91
2017-03-23T02:03:47.987Z,17.91
2017-03-23T02:04:28.633Z,17.87
2017-03-23T02:05:09.285Z,17.85
2017-03-23T02:05:49.947Z,17.92
2017-03-23T02:06:30.595Z,17.91
2017-03-23T02:07:11.332Z,17.91
2017-03-23T02:07:51.982Z,17.91
2017-03-23T02:08:32.626Z,17.94
2017-03-23T02:09:13.281Z,17.88
2017-03-23T02:09:53.924Z,17.87
2017-03-23T02:10:34.569Z,17.91
2017-03-23T02:11:15.227Z,17.89
2017-03-23T02:11:55.895Z,17.94
2017-03-23T02:12:36.537Z,17.89
2017-03-23T02:13:17.180Z,17.94
2017-03-23T02:13:57.823Z,17.89
2017-03-23T02:14:38.473Z,17.89
2017-03-23T02:15:19.130Z,17.91
2017-03-23T02:15:59.819Z,17.87
2017-03-23T02:16:40.466Z,17.82
2017-03-23T02:17:22.120Z,17.88
2017-03-23T02:18:02.765Z,17.88
2017-03-23T02:18:43.420Z,17.97
2017-03-23T02:19:24.071Z,17.81
2017-03-23T02:20:04.790Z,17.89
2017-03-23T02:20:45.435Z,17.89
2017-03-23T02:21:26.080Z,17.95
2017-03-23T02:22:06.740Z,17.91
2017-03-23T02:22:47.392Z,17.88
2017-03-23T02:23:28.046Z,17.88
2017-03-23T02:24:08.702Z,17.94
2017-03-23T02:24:49.393Z,17.89
2017-03-23T02:25:30.052Z,17.92
2017-03-23T02:26:10.704Z,17.88
2017-03-23T02:26:51.415Z,17.91
2017-03-23T02:27:32.067Z,17.91
2017-03-23T02:28:12.713Z,17.91
2017-03-23T02:28:53.368Z,17.91
2017-03-23T02:29:34.023Z,17.82
2017-03-23T02:30:14.677Z,17.85
2017-03-23T02:30:55.420Z,17.84
2017-03-23T02:31:36.065Z,17.82
2017-03-23T02:32:16.736Z,17.82
2017-03-23T02:32:57.390Z,17.91
2017-03-23T02:33:38.049Z,17.91
2017-03-23T02:34:18.730Z,17.95
2017-03-23T02:34:59.381Z,17.94
2017-03-23T02:35:40.075Z,17.92
2017-03-23T02:36:20.741Z,17.89
2017-03-23T02:37:01.384Z,17.88
2017-03-23T02:37:42.031Z,17.91
2017-03-23T02:38:22.677Z,17.92
2017-03-23T02:39:03.337Z,17.79
2017-03-23T02:39:43.981Z,17.92
2017-03-23T02:40:24.620Z,17.92
2017-03-23T02:41:05.298Z,17.88
2017-03-23T02:41:45.980Z,17.94
2017-03-23T02:42:26.632Z,17.88
2017-03-23T02:43:07.291Z,17.91
2017-03-23T02:43:47.969Z,17.92
2017-03-23T02:44:28.634Z,17.89
2017-03-23T02:45:09.296Z,17.95
2017-03-23T02:45:49.945Z,17.91
2017-03-23T02:46:30.608Z,17.94
2017-03-23T02:47:11.307Z,17.89
2017-03-23T02:47:51.994Z,17.94
2017-03-23T02:48:32.684Z,17.88
2017-03-23T02:49:13.343Z,17.89
2017-03-23T02:49:54.125Z,17.89
2017-03-23T02:50:34.872Z,17.92
2017-03-23T02:51:15.518Z,17.89
2017-03-23T02:51:56.249Z,17.94
2017-03-23T02:52:36.909Z,17.87
2017-03-23T02:53:17.584Z,17.92
2017-03-23T02:53:58.252Z,17.94
2017-03-23T02:54:38.952Z,17.89
2017-03-23T02:55:19.690Z,17.91
2017-03-23T02:56:00.338Z,17.91
2017-03-23T02:56:41.106Z,17.89
2017-03-23T02:57:21.768Z,17.94
2017-03-23T02:58:02.488Z,17.88
2017-03-23T02:58:43.154Z,17.94
2017-03-23T02:59:23.857Z,17.97
2017-03-23T03:00:04.510Z,17.89
2017-03-23T03:00:45.163Z,17.88
2017-03-23T03:01:25.820Z,17.91
2017-03-23T03:02:06.568Z,17.88
2017-03-23T03:02:47.233Z,17.82
2017-03-23T03:03:27.932Z,17.92
2017-03-23T03:04:08.608Z,17.82
2017-03-23T03:04:49.258Z,17.82
2017-03-23T03:05:29.913Z,17.85
2017-03-23T03:06:10.684Z,17.82
2017-03-23T03:06:51.347Z,17.91
2017-03-23T03:07:31.987Z,17.82
2017-03-23T03:08:12.732Z,17.89
2017-03-23T03:08:53.389Z,17.89
2017-03-23T03:09:34.100Z,17.81
2017-03-23T03:10:14.703Z,17.85
2017-03-23T03:10:55.420Z,17.85
2017-03-23T03:11:36.129Z,17.84
2017-03-23T03:12:16.783Z,17.91
2017-03-23T03:12:57.427Z,17.79
2017-03-23T03:13:38.073Z,17.88
2017-03-23T03:14:18.713Z,17.91
2017-03-23T03:14:59.359Z,17.89
2017-03-23T03:15:40.022Z,17.97
2017-03-23T03:16:20.668Z,17.79
2017-03-23T03:17:01.312Z,17.84
2017-03-23T03:17:42.006Z,17.84
2017-03-23T03:18:22.660Z,17.88
2017-03-23T03:19:03.311Z,17.82
2017-03-23T03:19:43.959Z,17.84
2017-03-23T03:20:24.611Z,17.85
2017-03-23T03:21:05.294Z,17.82
2017-03-23T03:21:45.948Z,17.84
2017-03-23T03:22:26.594Z,17.85
2017-03-23T03:23:07.249Z,17.94
2017-03-23T03:23:47.903Z,17.82
2017-03-23T03:24:28.564Z,17.84
2017-03-23T03:25:09.211Z,17.81
2017-03-23T03:25:49.894Z,17.91
2017-03-23T03:26:30.555Z,17.88
2017-03-23T03:27:11.201Z,17.85
2017-03-23T03:27:51.849Z,17.92
2017-03-23T03:28:32.485Z,17.89
2017-03-23T03:29:13.141Z,17.84
2017-03-23T03:29:53.790Z,17.79
2017-03-23T03:30:34.564Z,17.78
2017-03-23T03:31:15.115Z,17.81
2017-03-23T03:31:55.770Z,17.84
2017-03-23T03:32:36.511Z,17.81
2017-03-23T03:33:17.176Z,17.81
2017-03-23T03:33:57.845Z,17.92
2017-03-23T03:34:38.579Z,17.82
2017-03-23T03:35:19.236Z,17.85
2017-03-23T03:35:59.879Z,17.84
2017-03-23T03:36:40.555Z,17.82
2017-03-23T03:37:21.195Z,17.85
2017-03-23T03:38:01.852Z,17.85
2017-03-23T03:38:42.594Z,17.73
2017-03-23T03:39:23.256Z,17.82
2017-03-23T03:40:03.905Z,17.71
2017-03-23T03:40:44.644Z,17.82
2017-03-23T03:41:25.298Z,17.7
2017-03-23T03:42:05.944Z,17.84
2017-03-23T03:42:46.592Z,17.78
2017-03-23T03:43:27.345Z,17.67
2017-03-23T03:44:08.013Z,17.84
2017-03-23T03:44:48.657Z,17.76
2017-03-23T03:45:29.359Z,17.74
2017-03-23T03:46:10.016Z,17.71
2017-03-23T03:46:50.708Z,17.76
2017-03-23T03:47:31.322Z,17.84
2017-03-23T03:48:12.100Z,17.7
2017-03-23T03:48:52.760Z,17.73
2017-03-23T03:49:33.403Z,17.81
2017-03-23T03:50:14.051Z,17.7
2017-03-23T03:50:54.697Z,17.79
2017-03-23T03:51:35.352Z,17.67
2017-03-23T03:52:16.083Z,17.76
2017-03-23T03:52:56.745Z,17.74
2017-03-23T03:53:37.393Z,17.87
2017-03-23T03:54:18.054Z,17.81
2017-03-23T03:54:58.704Z,17.84
2017-03-23T03:55:39.432Z,17.76
2017-03-23T03:56:20.073Z,17.7
2017-03-23T03:57:00.722Z,17.7
2017-03-23T03:57:41.371Z,17.81
2017-03-23T03:58:22.022Z,17.81
2017-03-23T03:59:02.730Z,17.87
2017-03-23T03:59:43.391Z,17.82
2017-03-23T04:00:24.126Z,17.79
2017-03-23T04:01:04.758Z,17.76
2017-03-23T04:01:45.404Z,17.71
2017-03-23T04:02:26.049Z,17.67
2017-03-23T04:03:06.775Z,17.64
2017-03-23T04:03:47.431Z,17.69
2017-03-23T04:04:28.073Z,17.64
2017-03-23T04:05:08.789Z,17.63
2017-03-23T04:05:49.447Z,17.57
2017-03-23T04:06:30.137Z,17.69
2017-03-23T04:07:10.787Z,17.67
2017-03-23T04:07:51.606Z,17.59
2017-03-23T04:08:32.252Z,17.62
2017-03-23T04:09:12.927Z,17.64
2017-03-23T04:09:53.685Z,17.69
2017-03-23T04:10:34.339Z,17.59
2017-03-23T04:11:14.994Z,17.66
2017-03-23T04:11:55.644Z,17.63
2017-03-23T04:12:36.374Z,17.59
2017-03-23T04:13:17.036Z,17.59
2017-03-23T04:13:57.692Z,17.62
2017-03-23T04:14:38.360Z,17.63
2017-03-23T04:15:19.052Z,17.62
2017-03-23T04:15:59.733Z,17.69
2017-03-23T04:16:40.575Z,17.63
2017-03-23T04:17:21.303Z,17.63
2017-03-23T04:18:01.947Z,17.67
2017-03-23T04:18:42.637Z,17.63
2017-03-23T04:19:23.283Z,17.63
2017-03-23T04:20:03.915Z,17.63
2017-03-23T04:20:44.599Z,17.55
2017-03-23T04:21:25.246Z,17.59
2017-03-23T04:22:05.877Z,17.63
2017-03-23T04:22:46.504Z,17.57
2017-03-23T04:23:27.202Z,17.59
2017-03-23T04:24:07.824Z,17.69
2017-03-23T04:24:48.451Z,17.63
2017-03-23T04:25:29.073Z,17.62
2017-03-23T04:26:09.714Z,17.62
2017-03-23T04:26:50.385Z,17.63
2017-03-23T04:27:31.106Z,17.63
2017-03-23T04:28:11.730Z,17.63
2017-03-23T04:28:52.414Z,17.59
2017-03-23T04:29:33.054Z,17.59
2017-03-23T04:30:13.696Z,17.64
2017-03-23T04:30:54.429Z,17.62
2017-03-23T04:31:35.087Z,17.69
2017-03-23T04:32:15.776Z,17.66
2017-03-23T04:32:56.355Z,17.59
2017-03-23T04:33:37.043Z,17.63
2017-03-23T04:34:17.668Z,17.55
2017-03-23T04:34:58.290Z,17.54
2017-03-23T04:35:38.982Z,17.59
2017-03-23T04:36:19.707Z,17.57
2017-03-23T04:37:00.262Z,17.59
2017-03-23T04:37:40.973Z,17.53
2017-03-23T04:38:21.604Z,17.63
2017-03-23T04:39:02.220Z,17.57
2017-03-23T04:39:42.896Z,17.63
2017-03-23T04:40:23.528Z,17.63
2017-03-23T04:41:04.168Z,17.57
2017-03-23T04:41:44.841Z,17.53
2017-03-23T04:42:25.560Z,17.66
2017-03-23T04:43:06.200Z,17.54
2017-03-23T04:43:46.850Z,17.57
2017-03-23T04:44:27.515Z,17.59
2017-03-23T04:45:08.146Z,17.57
2017-03-23T04:45:48.795Z,17.59
2017-03-23T04:46:29.474Z,17.62
2017-03-23T04:47:10.102Z,17.59
2017-03-23T04:47:50.791Z,17.66
2017-03-23T04:48:31.529Z,17.59
2017-03-23T04:49:12.161Z,17.57
2017-03-23T04:49:52.830Z,17.55
2017-03-23T04:50:33.479Z,17.57
2017-03-23T04:51:14.126Z,17.59
2017-03-23T04:51:54.787Z,17.55
2017-03-23T04:52:35.409Z,17.55
2017-03-23T04:53:16.042Z,17.57
2017-03-23T04:53:56.787Z,17.54
2017-03-23T04:54:37.455Z,17.59
2017-03-23T04:55:18.176Z,17.55
2017-03-23T04:55:58.815Z,17.53
2017-03-23T04:56:39.509Z,17.54
2017-03-23T04:57:20.206Z,17.59
2017-03-23T04:58:00.828Z,17.54
2017-03-23T04:58:41.473Z,17.62
2017-03-23T04:59:22.181Z,17.55
2017-03-23T05:00:02.820Z,17.59
2017-03-23T05:00:43.440Z,17.67
2017-03-23T05:01:24.109Z,17.55
2017-03-23T05:02:04.736Z,17.55
2017-03-23T05:02:45.361Z,17.59
2017-03-23T05:03:26.065Z,17.57
2017-03-23T05:04:06.690Z,17.53
2017-03-23T05:04:47.324Z,17.48
2017-03-23T05:05:27.960Z,17.5
2017-03-23T05:06:08.587Z,17.51
2017-03-23T05:06:49.212Z,17.5
2017-03-23T05:07:29.870Z,17.48
2017-03-23T05:08:10.502Z,17.55
2017-03-23T05:08:51.187Z,17.54
2017-03-23T05:09:31.827Z,17.48
2017-03-23T05:10:12.448Z,17.46
2017-03-23T05:10:53.071Z,17.59
2017-03-23T05:11:33.743Z,17.59
2017-03-23T05:12:14.370Z,17.55
2017-03-23T05:12:54.994Z,17.59
2017-03-23T05:13:35.628Z,17.63
2017-03-23T05:14:16.261Z,17.53
2017-03-23T05:14:56.905Z,17.53
2017-03-23T05:15:37.545Z,17.48
2017-03-23T05:16:18.185Z,17.48
2017-03-23T05:16:58.837Z,17.54
2017-03-23T05:17:39.496Z,17.54
2017-03-23T05:18:20.123Z,17.47
2017-03-23T05:19:00.753Z,17.48
2017-03-23T05:19:41.379Z,17.48
2017-03-23T05:20:22.007Z,17.47
2017-03-23T05:21:02.658Z,17.5
2017-03-23T05:21:43.308Z,17.48
2017-03-23T05:22:23.925Z,17.53
2017-03-23T05:23:04.593Z,17.59
2017-03-23T05:23:45.219Z,17.5
2017-03-23T05:24:25.920Z,17.48
2017-03-23T05:25:06.566Z,17.5
2017-03-23T05:25:47.196Z,17.47
2017-03-23T05:26:27.893Z,17.5
2017-03-23T05:27:08.533Z,17.48
2017-03-23T05:27:49.180Z,17.46
2017-03-23T05:28:29.783Z,17.48
2017-03-23T05:29:10.511Z,17.48
2017-03-23T05:29:51.147Z,17.46
2017-03-23T05:30:31.785Z,17.48
2017-03-23T05:31:12.503Z,17.43
2017-03-23T05:31:53.135Z,17.5
2017-03-23T05:32:33.759Z,17.5
2017-03-23T05:33:14.432Z,17.48
2017-03-23T05:33:55.065Z,17.53
2017-03-23T05:34:35.717Z,17.46
2017-03-23T05:35:16.346Z,17.44
2017-03-23T05:35:57.040Z,17.46
2017-03-23T05:36:37.689Z,17.53
2017-03-23T05:37:18.392Z,17.53
2017-03-23T05:37:59.038Z,17.59
2017-03-23T05:38:39.666Z,17.48
2017-03-23T05:39:20.363Z,17.48
2017-03-23T05:40:00.989Z,17.46
2017-03-23T05:40:41.615Z,17.43
2017-03-23T05:41:22.253Z,17.48
2017-03-23T05:42:02.988Z,17.48
2017-03-23T05:42:43.614Z,17.5
2017-03-23T05:43:24.293Z,17.46
2017-03-23T05:44:04.952Z,17.47
2017-03-23T05:44:45.579Z,17.5
2017-03-23T05:45:26.285Z,17.5
2017-03-23T05:46:06.942Z,17.51
2017-03-23T05:46:47.573Z,17.53
2017-03-23T05:47:28.190Z,17.53
2017-03-23T05:48:08.814Z,17.44
2017-03-23T05:48:49.439Z,17.47
2017-03-23T05:49:30.198Z,17.44
2017-03-23T05:50:10.833Z,17.48
2017-03-23T05:50:51.454Z,17.46
2017-03-23T05:51:32.097Z,17.46
2017-03-23T05:52:12.733Z,17.48
2017-03-23T05:52:53.360Z,17.46
2017-03-23T05:53:34.069Z,17.44
2017-03-23T05:54:14.741Z,17.5
2017-03-23T05:54:55.475Z,17.48
2017-03-23T05:55:36.001Z,17.43
2017-03-23T05:56:16.624Z,17.48
2017-03-23T05:56:57.254Z,17.46
2017-03-23T05:57:37.878Z,17.51
2017-03-23T05:58:18.549Z,17.46
2017-03-23T05:58:59.181Z,17.47
2017-03-23T05:59:39.803Z,17.47
2017-03-23T06:00:20.428Z,17.46
2017-03-23T06:01:01.052Z,17.46
2017-03-23T06:01:41.688Z,17.46
2017-03-23T06:02:22.372Z,17.48
2017-03-23T06:03:03.026Z,17.47
2017-03-23T06:03:43.648Z,17.46
2017-03-23T06:04:24.381Z,17.48
2017-03-23T06:05:05.006Z,17.47
2017-03-23T06:05:45.705Z,17.53
2017-03-23T06:06:26.415Z,17.48
2017-03-23T06:07:07.135Z,17.46
2017-03-23T06:07:47.773Z,17.4
2017-03-23T06:08:28.463Z,17.43
2017-03-23T06:09:09.115Z,17.44
2017-03-23T06:09:49.740Z,17.48
2017-03-23T06:10:30.398Z,17.4
2017-03-23T06:11:11.032Z,17.38
2017-03-23T06:11:51.659Z,17.47
2017-03-23T06:12:32.381Z,17.4
2017-03-23T06:13:13.131Z,17.41
2017-03-23T06:13:53.789Z,17.41
2017-03-23T06:14:34.448Z,17.46
2017-03-23T06:15:15.152Z,17.48
2017-03-23T06:15:55.778Z,17.43
2017-03-23T06:16:36.413Z,17.48
2017-03-23T06:17:17.110Z,17.46
2017-03-23T06:17:57.743Z,17.44
2017-03-23T06:18:38.362Z,17.41
2017-03-23T06:19:18.985Z,17.48
2017-03-23T06:19:59.624Z,17.5
2017-03-23T06:20:40.314Z,17.41
2017-03-23T06:21:20.995Z,17.48
2017-03-23T06:23:40.325Z,17.46
2017-03-23T06:24:20.946Z,17.46
2017-03-23T06:25:01.562Z,17.43
2017-03-23T06:25:42.185Z,17.4
2017-03-23T06:26:22.820Z,17.36
2017-03-23T06:27:03.442Z,17.4
2017-03-23T06:27:44.070Z,17.35
2017-03-23T06:28:24.691Z,17.29
2017-03-23T06:29:05.311Z,17.4
2017-03-23T06:29:45.927Z,17.38
2017-03-23T06:30:26.551Z,17.29
2017-03-23T06:31:07.175Z,17.29
2017-03-23T06:31:47.800Z,17.29
2017-03-23T06:32:28.427Z,17.3
2017-03-23T06:33:09.051Z,17.32
2017-03-23T06:33:49.689Z,17.28
2017-03-23T06:34:30.326Z,17.35
2017-03-23T06:35:10.949Z,17.25
2017-03-23T06:35:51.669Z,17.28
2017-03-23T06:36:32.333Z,17.28
2017-03-23T06:37:12.963Z,17.32
2017-03-23T06:37:53.587Z,17.28
2017-03-23T06:38:34.207Z,17.35
2017-03-23T06:39:14.840Z,17.25
2017-03-23T06:39:55.471Z,17.28
2017-03-23T06:40:36.100Z,17.35
2017-03-23T06:41:16.728Z,17.32
2017-03-23T06:41:57.364Z,17.25
2017-03-23T06:42:37.995Z,17.26
2017-03-23T06:43:18.634Z,17.29
2017-03-23T06:43:59.267Z,17.36
2017-03-23T06:44:39.890Z,17.41
2017-03-23T06:45:20.613Z,17.38
2017-03-23T06:46:01.313Z,17.41
2017-03-23T06:46:42.007Z,17.36
2017-03-23T06:47:22.651Z,17.36
2017-03-23T06:48:03.285Z,17.4
2017-03-23T06:48:43.913Z,17.38
2017-03-23T06:49:24.596Z,17.3
2017-03-23T06:50:05.297Z,17.4
2017-03-23T06:50:45.921Z,17.35
2017-03-23T06:51:26.544Z,17.32
2017-03-23T06:52:07.170Z,17.35
2017-03-23T06:52:47.805Z,17.35
2017-03-23T06:53:28.440Z,17.29
2017-03-23T06:54:09.104Z,17.38
2017-03-23T06:54:49.791Z,17.41
2017-03-23T06:55:30.420Z,17.29
2017-03-23T06:56:11.091Z,17.35
2017-03-23T06:56:51.714Z,17.36
2017-03-23T06:57:32.335Z,17.38
2017-03-23T06:58:12.953Z,17.38
2017-03-23T06:58:53.648Z,17.4
2017-03-23T06:59:34.198Z,17.33
2017-03-23T07:00:14.854Z,17.38
2017-03-23T07:00:55.481Z,17.32
2017-03-23T07:01:36.108Z,17.29
2017-03-23T07:02:16.779Z,17.36
2017-03-23T07:02:57.407Z,17.4
2017-03-23T07:03:38.099Z,17.29
2017-03-23T07:04:18.718Z,17.3
2017-03-23T07:04:59.342Z,17.41
2017-03-23T07:05:40.009Z,17.3
2017-03-23T07:06:20.751Z,17.33
2017-03-23T07:07:01.407Z,17.35
2017-03-23T07:07:42.055Z,17.38
2017-03-23T07:08:22.689Z,17.38
2017-03-23T07:09:03.326Z,17.35
2017-03-23T07:09:43.947Z,17.41
2017-03-23T07:10:24.595Z,17.36
2017-03-23T07:11:05.261Z,17.3
2017-03-23T07:11:45.865Z,17.36
2017-03-23T07:12:26.557Z,17.36
2017-03-23T07:13:07.206Z,17.29
2017-03-23T07:13:47.899Z,17.36
2017-03-23T07:14:28.649Z,17.4
2017-03-23T07:15:09.289Z,17.26
2017-03-23T07:15:49.912Z,17.38
2017-03-23T07:16:30.558Z,17.36
2017-03-23T07:17:11.187Z,17.36
2017-03-23T07:17:51.812Z,17.33
2017-03-23T07:18:32.480Z,17.4
2017-03-23T07:19:13.117Z,17.35
2017-03-23T07:19:53.742Z,17.32
2017-03-23T07:20:34.437Z,17.35
2017-03-23T07:21:15.094Z,17.29
2017-03-23T07:21:55.721Z,17.38
2017-03-23T07:22:36.342Z,17.36
2017-03-23T07:23:16.991Z,17.32
2017-03-23T07:23:57.616Z,17.35
2017-03-23T07:24:38.346Z,17.32
2017-03-23T07:25:18.978Z,17.3
2017-03-23T07:25:59.601Z,17.23
2017-03-23T07:26:40.229Z,17.36
2017-03-23T07:27:20.858Z,17.38
2017-03-23T07:28:01.486Z,17.32
2017-03-23T07:28:42.186Z,17.32
2017-03-23T07:29:22.809Z,17.41
2017-03-23T07:30:03.454Z,17.38
2017-03-23T07:30:44.084Z,17.35
2017-03-23T07:31:24.708Z,17.29
2017-03-23T07:32:05.332Z,17.33
2017-03-23T07:32:45.959Z,17.32
2017-03-23T07:33:26.581Z,17.36
2017-03-23T07:34:07.233Z,17.36
2017-03-23T07:34:47.859Z,17.29
2017-03-23T07:35:28.487Z,17.23
2017-03-23T07:36:09.175Z,17.36
2017-03-23T07:36:49.866Z,17.36
2017-03-23T07:37:30.494Z,17.36
2017-03-23T07:38:11.126Z,17.32
2017-03-23T07:38:51.824Z,17.35
2017-03-23T07:39:32.554Z,17.38
2017-03-23T07:40:13.202Z,17.33
2017-03-23T07:40:53.841Z,17.32
2017-03-23T07:41:34.520Z,17.36
2017-03-23T07:42:15.140Z,17.35
2017-03-23T07:42:55.764Z,17.36
2017-03-23T07:43:36.457Z,17.3
2017-03-23T07:44:17.084Z,17.36
2017-03-23T07:44:57.800Z,17.28
2017-03-23T07:45:38.430Z,17.32
2017-03-23T07:46:19.066Z,17.35
2017-03-23T07:46:59.721Z,17.35
2017-03-23T07:47:40.345Z,17.35
2017-03-23T07:48:20.973Z,17.32
2017-03-23T07:49:01.651Z,17.35
2017-03-23T07:49:42.342Z,17.36
2017-03-23T07:50:22.963Z,17.35
2017-03-23T07:51:03.595Z,17.35
2017-03-23T07:51:44.215Z,17.36
2017-03-23T07:52:24.835Z,17.32
2017-03-23T07:53:05.559Z,17.38
2017-03-23T07:53:46.190Z,17.33
2017-03-23T07:54:26.818Z,17.36
2017-03-23T07:55:07.460Z,17.33
2017-03-23T07:55:48.089Z,17.35
2017-03-23T07:56:28.720Z,17.35
2017-03-23T07:57:09.391Z,17.32
2017-03-23T07:57:50.011Z,17.32
2017-03-23T07:58:30.634Z,17.36
2017-03-23T07:59:11.333Z,17.36
2017-03-23T07:59:51.955Z,17.35
2017-03-23T08:00:32.578Z,17.3
2017-03-23T08:01:13.200Z,17.29
2017-03-23T08:01:53.818Z,17.35
2017-03-23T08:02:34.451Z,17.35
2017-03-23T08:03:15.089Z,17.38
2017-03-23T08:03:55.721Z,17.35
2017-03-23T08:04:36.349Z,17.33
2017-03-23T08:05:16.975Z,17.38
2017-03-23T08:05:57.592Z,17.29
2017-03-23T08:06:38.249Z,17.3
2017-03-23T08:07:18.876Z,17.36
2017-03-23T08:07:59.510Z,17.32
2017-03-23T08:08:40.132Z,17.35
2017-03-23T08:09:20.765Z,17.35
2017-03-23T08:10:01.395Z,17.38
2017-03-23T08:10:42.014Z,17.33
2017-03-23T08:11:22.652Z,17.32
2017-03-23T08:12:03.280Z,17.35
2017-03-23T08:12:43.952Z,17.33
2017-03-23T08:13:24.627Z,17.4
2017-03-23T08:14:05.261Z,17.35
2017-03-23T08:14:45.883Z,17.32
2017-03-23T08:15:26.497Z,17.35
2017-03-23T08:16:07.134Z,17.33
2017-03-23T08:16:47.946Z,17.28
2017-03-23T08:17:28.674Z,17.36
2017-03-23T08:18:09.301Z,17.3
2017-03-23T08:18:49.951Z,17.4
2017-03-23T08:19:30.593Z,17.32
2017-03-23T08:20:11.226Z,17.36
2017-03-23T08:20:51.879Z,17.33
2017-03-23T08:21:32.605Z,17.32
2017-03-23T08:22:13.290Z,17.33
2017-03-23T08:22:53.849Z,17.41
2017-03-23T08:23:34.579Z,17.35
2017-03-23T08:24:15.277Z,17.41
2017-03-23T08:24:55.913Z,17.36
2017-03-23T08:25:36.543Z,17.35
2017-03-23T08:26:17.244Z,17.3
2017-03-23T08:26:57.869Z,17.35
2017-03-23T08:27:39.025Z,17.36
2017-03-23T08:28:19.650Z,17.36
2017-03-23T08:29:00.284Z,17.28
2017-03-23T08:29:40.906Z,17.35
2017-03-23T08:30:21.639Z,17.35
2017-03-23T08:31:02.272Z,17.46
2017-03-23T08:31:42.903Z,17.46
2017-03-23T08:32:23.562Z,17.41
2017-03-23T08:33:04.185Z,17.29
2017-03-23T08:33:44.806Z,17.36
2017-03-23T08:34:25.426Z,17.4
2017-03-23T08:35:06.060Z,17.35
2017-03-23T08:35:46.681Z,17.41
2017-03-23T08:36:27.314Z,17.46
2017-03-23T08:37:07.983Z,17.41
2017-03-23T08:37:48.621Z,17.46
2017-03-23T08:38:29.256Z,17.41
2017-03-23T08:39:09.915Z,17.43
2017-03-23T08:39:50.526Z,17.43
2017-03-23T08:40:31.192Z,17.38
2017-03-23T08:41:11.813Z,17.43
2017-03-23T08:41:52.434Z,17.36
2017-03-23T08:42:33.084Z,17.47
2017-03-23T08:43:13.704Z,17.44
2017-03-23T08:43:54.341Z,17.43
2017-03-23T08:44:35.027Z,17.47
2017-03-23T08:45:15.738Z,17.41
2017-03-23T08:45:56.357Z,17.36
2017-03-23T08:46:36.978Z,17.4
2017-03-23T08:47:17.611Z,17.41